sensor_id;sensor_type;location;lat;lon;timestamp;pressure;altitude;pressure_sealevel;temperature;humidity
67015;BME280;1033;52.560;13.374;2023-04-05T00:02:16;101950.09;;;0.96;68.78
67015;BME280;1033;52.560;13.374;2023-04-05T00:04:46;101956.66;;;1.03;69.49
67015;BME280;1033;52.560;13.374;2023-04-05T00:07:24;101956.00;;;0.88;69.39
67015;BME280;1033;52.560;13.374;2023-04-05T00:09:55;101945.69;;;0.84;70.39
67015;BME280;1033;52.560;13.374;2023-04-05T00:12:27;101954.59;;;0.72;70.30
67015;BME280;1033;52.560;13.374;2023-04-05T00:14:57;101946.19;;;0.65;70.90
67015;BME280;1033;52.560;13.374;2023-04-05T00:17:26;101943.69;;;0.75;71.50
67015;BME280;1033;52.560;13.374;2023-04-05T00:19:56;101943.44;;;0.78;70.82
67015;BME280;1033;52.560;13.374;2023-04-05T00:22:25;101948.34;;;0.60;71.15
67015;BME280;1033;52.560;13.374;2023-04-05T00:25:04;101947.75;;;0.68;67.91
67015;BME280;1033;52.560;13.374;2023-04-05T00:27:34;101946.00;;;0.56;70.03
67015;BME280;1033;52.560;13.374;2023-04-05T00:30:04;101944.53;;;0.52;70.81
67015;BME280;1033;52.560;13.374;2023-04-05T00:32:34;101943.28;;;0.44;69.65
67015;BME280;1033;52.560;13.374;2023-04-05T00:35:04;101948.06;;;0.39;70.03
67015;BME280;1033;52.560;13.374;2023-04-05T00:37:37;101936.03;;;0.47;70.09
67015;BME280;1033;52.560;13.374;2023-04-05T00:40:19;101938.78;;;0.45;68.67
67015;BME280;1033;52.560;13.374;2023-04-05T00:42:48;101939.81;;;0.31;69.12
67015;BME280;1033;52.560;13.374;2023-04-05T00:45:18;101940.09;;;0.39;69.76
67015;BME280;1033;52.560;13.374;2023-04-05T00:47:47;101936.72;;;0.37;70.88
67015;BME280;1033;52.560;13.374;2023-04-05T00:50:17;101932.19;;;0.51;71.56
67015;BME280;1033;52.560;13.374;2023-04-05T00:52:46;101936.81;;;0.60;70.71
67015;BME280;1033;52.560;13.374;2023-04-05T00:55:18;101931.50;;;0.60;70.33
67015;BME280;1033;52.560;13.374;2023-04-05T00:57:49;101924.63;;;0.44;68.88
67015;BME280;1033;52.560;13.374;2023-04-05T01:00:20;101932.53;;;0.46;70.75
67015;BME280;1033;52.560;13.374;2023-04-05T01:02:54;101927.19;;;0.70;70.35
67015;BME280;1033;52.560;13.374;2023-04-05T01:05:31;101924.44;;;0.71;69.86
67015;BME280;1033;52.560;13.374;2023-04-05T01:08:11;101924.69;;;0.56;70.07
67015;BME280;1033;52.560;13.374;2023-04-05T01:10:50;101921.75;;;0.48;70.02
67015;BME280;1033;52.560;13.374;2023-04-05T01:13:25;101926.72;;;0.28;69.90
67015;BME280;1033;52.560;13.374;2023-04-05T01:15:54;101920.13;;;0.21;69.64
67015;BME280;1033;52.560;13.374;2023-04-05T01:18:23;101927.81;;;0.13;70.61
67015;BME280;1033;52.560;13.374;2023-04-05T01:20:58;101922.69;;;0.10;71.19
67015;BME280;1033;52.560;13.374;2023-04-05T01:23:37;101926.72;;;0.28;71.43
67015;BME280;1033;52.560;13.374;2023-04-05T01:29:48;101927.09;;;0.48;71.06
67015;BME280;1033;52.560;13.374;2023-04-05T01:32:29;101921.34;;;0.41;69.14
67015;BME280;1033;52.560;13.374;2023-04-05T01:35:11;101919.44;;;0.43;70.77
67015;BME280;1033;52.560;13.374;2023-04-05T01:37:48;101914.56;;;0.37;71.15
67015;BME280;1033;52.560;13.374;2023-04-05T01:40:18;101921.44;;;0.39;72.07
67015;BME280;1033;52.560;13.374;2023-04-05T01:42:49;101917.16;;;0.50;70.86
67015;BME280;1033;52.560;13.374;2023-04-05T01:45:19;101910.63;;;0.54;71.39
67015;BME280;1033;52.560;13.374;2023-04-05T01:47:49;101918.78;;;0.39;70.80
67015;BME280;1033;52.560;13.374;2023-04-05T01:50:19;101923.31;;;0.26;71.47
67015;BME280;1033;52.560;13.374;2023-04-05T01:52:48;101916.56;;;0.10;71.59
67015;BME280;1033;52.560;13.374;2023-04-05T01:55:17;101915.16;;;0.40;72.35
67015;BME280;1033;52.560;13.374;2023-04-05T01:57:46;101909.41;;;0.47;72.54
67015;BME280;1033;52.560;13.374;2023-04-05T02:00:16;101910.34;;;0.46;72.28
67015;BME280;1033;52.560;13.374;2023-04-05T02:02:47;101905.47;;;0.39;72.16
67015;BME280;1033;52.560;13.374;2023-04-05T02:05:16;101906.06;;;0.56;71.99
67015;BME280;1033;52.560;13.374;2023-04-05T02:07:46;101909.41;;;0.70;72.20
67015;BME280;1033;52.560;13.374;2023-04-05T02:10:21;101905.00;;;0.82;72.04
67015;BME280;1033;52.560;13.374;2023-04-05T02:12:50;101906.13;;;0.67;71.15
67015;BME280;1033;52.560;13.374;2023-04-05T02:15:19;101903.59;;;1.00;71.19
67015;BME280;1033;52.560;13.374;2023-04-05T02:17:50;101906.22;;;0.89;70.61
67015;BME280;1033;52.560;13.374;2023-04-05T02:20:20;101900.97;;;1.11;71.67
67015;BME280;1033;52.560;13.374;2023-04-05T02:22:52;101896.84;;;1.18;70.48
67015;BME280;1033;52.560;13.374;2023-04-05T02:25:21;101892.97;;;1.22;70.80
67015;BME280;1033;52.560;13.374;2023-04-05T02:27:51;101901.59;;;1.26;70.58
67015;BME280;1033;52.560;13.374;2023-04-05T02:30:21;101898.09;;;1.25;70.31
67015;BME280;1033;52.560;13.374;2023-04-05T02:32:51;101889.34;;;1.23;71.17
67015;BME280;1033;52.560;13.374;2023-04-05T02:35:20;101894.94;;;1.20;70.93
67015;BME280;1033;52.560;13.374;2023-04-05T02:37:50;101888.16;;;1.27;70.53
67015;BME280;1033;52.560;13.374;2023-04-05T02:40:19;101885.13;;;1.21;71.01
67015;BME280;1033;52.560;13.374;2023-04-05T02:42:49;101887.69;;;1.34;71.39
67015;BME280;1033;52.560;13.374;2023-04-05T02:45:18;101885.00;;;1.34;71.95
67015;BME280;1033;52.560;13.374;2023-04-05T02:47:48;101889.63;;;1.43;71.04
67015;BME280;1033;52.560;13.374;2023-04-05T02:50:19;101886.72;;;1.46;71.59
67015;BME280;1033;52.560;13.374;2023-04-05T02:52:50;101885.38;;;1.51;71.37
67015;BME280;1033;52.560;13.374;2023-04-05T02:55:20;101882.63;;;1.53;71.41
67015;BME280;1033;52.560;13.374;2023-04-05T02:57:49;101877.88;;;1.45;71.02
67015;BME280;1033;52.560;13.374;2023-04-05T03:00:25;101878.97;;;1.43;71.05
67015;BME280;1033;52.560;13.374;2023-04-05T03:02:57;101878.72;;;1.35;70.42
67015;BME280;1033;52.560;13.374;2023-04-05T03:05:27;101875.06;;;1.36;71.67
67015;BME280;1033;52.560;13.374;2023-04-05T03:07:58;101869.25;;;1.30;71.13
67015;BME280;1033;52.560;13.374;2023-04-05T03:10:32;101869.13;;;1.21;71.57
67015;BME280;1033;52.560;13.374;2023-04-05T03:13:13;101867.31;;;1.33;72.39
67015;BME280;1033;52.560;13.374;2023-04-05T03:15:43;101865.09;;;1.26;71.58
67015;BME280;1033;52.560;13.374;2023-04-05T03:18:16;101862.69;;;1.23;72.56
67015;BME280;1033;52.560;13.374;2023-04-05T03:20:47;101859.66;;;1.28;72.83
67015;BME280;1033;52.560;13.374;2023-04-05T03:23:20;101867.56;;;1.29;72.40
67015;BME280;1033;52.560;13.374;2023-04-05T03:25:54;101862.34;;;1.28;72.00
67015;BME280;1033;52.560;13.374;2023-04-05T03:28:52;101864.88;;;1.41;72.99
67015;BME280;1033;52.560;13.374;2023-04-05T03:31:28;101860.88;;;1.24;71.78
67015;BME280;1033;52.560;13.374;2023-04-05T03:34:01;101871.44;;;1.25;73.09
67015;BME280;1033;52.560;13.374;2023-04-05T03:36:39;101857.59;;;1.31;73.30
67015;BME280;1033;52.560;13.374;2023-04-05T03:39:23;101862.47;;;1.38;73.33
67015;BME280;1033;52.560;13.374;2023-04-05T03:41:53;101854.72;;;1.57;72.58
67015;BME280;1033;52.560;13.374;2023-04-05T03:44:23;101863.81;;;1.65;72.05
67015;BME280;1033;52.560;13.374;2023-04-05T03:46:52;101854.34;;;1.61;72.39
67015;BME280;1033;52.560;13.374;2023-04-05T03:49:23;101853.41;;;1.62;72.30
67015;BME280;1033;52.560;13.374;2023-04-05T03:51:54;101852.06;;;1.68;71.98
67015;BME280;1033;52.560;13.374;2023-04-05T03:54:23;101858.09;;;1.70;72.13
67015;BME280;1033;52.560;13.374;2023-04-05T03:56:56;101856.19;;;1.72;71.64
67015;BME280;1033;52.560;13.374;2023-04-05T03:59:25;101855.69;;;1.67;71.51
67015;BME280;1033;52.560;13.374;2023-04-05T04:01:54;101852.28;;;1.65;71.73
67015;BME280;1033;52.560;13.374;2023-04-05T04:04:24;101849.97;;;1.60;71.88
67015;BME280;1033;52.560;13.374;2023-04-05T04:06:56;101844.06;;;1.57;72.25
67015;BME280;1033;52.560;13.374;2023-04-05T04:09:28;101853.50;;;1.61;71.87
67015;BME280;1033;52.560;13.374;2023-04-05T04:12:05;101854.47;;;1.60;70.90
67015;BME280;1033;52.560;13.374;2023-04-05T04:14:39;101848.31;;;1.59;71.73
67015;BME280;1033;52.560;13.374;2023-04-05T04:17:32;101847.94;;;1.53;71.74
67015;BME280;1033;52.560;13.374;2023-04-05T04:20:13;101853.41;;;1.62;72.61
67015;BME280;1033;52.560;13.374;2023-04-05T04:22:57;101852.91;;;1.68;71.78
67015;BME280;1033;52.560;13.374;2023-04-05T04:25:49;101849.25;;;1.69;71.47
67015;BME280;1033;52.560;13.374;2023-04-05T04:28:40;101852.06;;;1.68;71.54
67015;BME280;1033;52.560;13.374;2023-04-05T04:31:27;101845.03;;;1.67;71.68
67015;BME280;1033;52.560;13.374;2023-04-05T04:34:25;101840.91;;;1.63;72.08
67015;BME280;1033;52.560;13.374;2023-04-05T04:37:09;101839.91;;;1.75;72.67
67015;BME280;1033;52.560;13.374;2023-04-05T04:40:05;101847.19;;;1.84;72.17
67015;BME280;1033;52.560;13.374;2023-04-05T04:42:57;101858.38;;;1.78;71.51
67015;BME280;1033;52.560;13.374;2023-04-05T04:45:49;101860.78;;;1.81;72.06
67015;BME280;1033;52.560;13.374;2023-04-05T04:48:33;101850.59;;;1.75;70.98
67015;BME280;1033;52.560;13.374;2023-04-05T04:51:16;101855.81;;;1.43;71.39
67015;BME280;1033;52.560;13.374;2023-04-05T04:53:45;101855.94;;;1.64;72.27
67015;BME280;1033;52.560;13.374;2023-04-05T04:56:16;101848.78;;;1.53;71.98
67015;BME280;1033;52.560;13.374;2023-04-05T04:58:45;101846.00;;;1.55;71.77
67015;BME280;1033;52.560;13.374;2023-04-05T05:01:14;101848.69;;;1.55;71.98
67015;BME280;1033;52.560;13.374;2023-04-05T05:03:43;101852.78;;;1.59;71.51
67015;BME280;1033;52.560;13.374;2023-04-05T05:06:16;101850.34;;;1.56;71.19
67015;BME280;1033;52.560;13.374;2023-04-05T05:08:45;101854.47;;;1.71;69.76
67015;BME280;1033;52.560;13.374;2023-04-05T05:11:16;101852.53;;;1.51;70.12
67015;BME280;1033;52.560;13.374;2023-04-05T05:13:45;101848.69;;;1.55;69.39
67015;BME280;1033;52.560;13.374;2023-04-05T05:16:22;101840.03;;;1.51;68.99
67015;BME280;1033;52.560;13.374;2023-04-05T05:18:52;101854.72;;;1.57;70.02
67015;BME280;1033;52.560;13.374;2023-04-05T05:21:24;101837.50;;;1.72;68.40
67015;BME280;1033;52.560;13.374;2023-04-05T05:23:56;101849.63;;;1.76;68.47
67015;BME280;1033;52.560;13.374;2023-04-05T05:26:27;101846.00;;;1.88;68.26
67015;BME280;1033;52.560;13.374;2023-04-05T05:29:00;101846.59;;;2.03;67.13
67015;BME280;1033;52.560;13.374;2023-04-05T05:31:32;101849.25;;;1.92;67.37
67015;BME280;1033;52.560;13.374;2023-04-05T05:34:01;101840.91;;;2.28;67.61
67015;BME280;1033;52.560;13.374;2023-04-05T05:36:35;101843.47;;;2.30;66.84
67015;BME280;1033;52.560;13.374;2023-04-05T05:39:05;101848.06;;;2.39;67.39
67015;BME280;1033;52.560;13.374;2023-04-05T05:41:35;101846.34;;;2.38;66.18
67015;BME280;1033;52.560;13.374;2023-04-05T05:44:06;101840.13;;;2.48;65.62
67015;BME280;1033;52.560;13.374;2023-04-05T05:46:35;101836.06;;;2.65;64.81
67015;BME280;1033;52.560;13.374;2023-04-05T05:49:04;101840.56;;;2.65;66.02
67015;BME280;1033;52.560;13.374;2023-04-05T05:51:33;101830.06;;;2.73;65.20
67015;BME280;1033;52.560;13.374;2023-04-05T05:54:02;101840.00;;;2.50;64.53
67015;BME280;1033;52.560;13.374;2023-04-05T05:56:31;101839.34;;;2.37;65.14
67015;BME280;1033;52.560;13.374;2023-04-05T05:59:01;101836.56;;;2.59;64.23
67015;BME280;1033;52.560;13.374;2023-04-05T06:01:31;101836.19;;;2.63;64.61
67015;BME280;1033;52.560;13.374;2023-04-05T06:04:01;101833.44;;;2.54;64.32
67015;BME280;1033;52.560;13.374;2023-04-05T06:06:30;101830.66;;;2.76;63.98
67015;BME280;1033;52.560;13.374;2023-04-05T06:09:02;101838.97;;;2.62;64.14
67015;BME280;1033;52.560;13.374;2023-04-05T06:11:31;101832.78;;;2.61;64.40
67015;BME280;1033;52.560;13.374;2023-04-05T06:14:04;101847.16;;;2.60;64.38
67015;BME280;1033;52.560;13.374;2023-04-05T06:16:34;101844.00;;;2.76;64.23
67015;BME280;1033;52.560;13.374;2023-04-05T06:19:03;101841.06;;;2.90;62.62
67015;BME280;1033;52.560;13.374;2023-04-05T06:21:32;101841.88;;;2.70;63.24
67015;BME280;1033;52.560;13.374;2023-04-05T06:24:01;101841.81;;;2.81;63.26
67015;BME280;1033;52.560;13.374;2023-04-05T06:26:30;101835.25;;;2.85;63.16
67015;BME280;1033;52.560;13.374;2023-04-05T06:28:59;101831.97;;;3.02;62.96
67015;BME280;1033;52.560;13.374;2023-04-05T06:31:33;101845.28;;;3.14;62.72
67015;BME280;1033;52.560;13.374;2023-04-05T06:34:03;101838.75;;;3.06;62.24
67015;BME280;1033;52.560;13.374;2023-04-05T06:36:32;101842.50;;;2.94;62.69
67015;BME280;1033;52.560;13.374;2023-04-05T06:39:02;101841.66;;;3.15;62.44
67015;BME280;1033;52.560;13.374;2023-04-05T06:41:31;101840.13;;;3.22;62.57
67015;BME280;1033;52.560;13.374;2023-04-05T06:44:03;101843.31;;;3.36;62.43
67015;BME280;1033;52.560;13.374;2023-04-05T06:46:33;101834.88;;;3.41;62.01
67015;BME280;1033;52.560;13.374;2023-04-05T06:49:02;101839.09;;;3.74;61.82
67015;BME280;1033;52.560;13.374;2023-04-05T06:51:31;101838.09;;;4.05;59.88
67015;BME280;1033;52.560;13.374;2023-04-05T06:54:00;101839.06;;;3.94;60.22
67015;BME280;1033;52.560;13.374;2023-04-05T06:56:29;101834.91;;;3.81;60.63
67015;BME280;1033;52.560;13.374;2023-04-05T06:58:58;101834.59;;;4.14;60.21
67015;BME280;1033;52.560;13.374;2023-04-05T07:01:29;101833.44;;;4.17;59.72
67015;BME280;1033;52.560;13.374;2023-04-05T07:03:59;101832.50;;;4.37;59.74
67015;BME280;1033;52.560;13.374;2023-04-05T07:06:28;101831.97;;;4.72;58.93
67015;BME280;1033;52.560;13.374;2023-04-05T07:09:00;101820.81;;;4.76;58.49
67015;BME280;1033;52.560;13.374;2023-04-05T07:11:30;101820.69;;;4.68;58.92
67015;BME280;1033;52.560;13.374;2023-04-05T07:14:00;101823.78;;;4.93;58.25
67015;BME280;1033;52.560;13.374;2023-04-05T07:16:29;101821.94;;;5.03;58.36
67015;BME280;1033;52.560;13.374;2023-04-05T07:18:59;101820.22;;;5.02;58.48
67015;BME280;1033;52.560;13.374;2023-04-05T07:21:28;101829.09;;;5.12;58.16
67015;BME280;1033;52.560;13.374;2023-04-05T07:23:57;101832.66;;;5.03;57.90
67015;BME280;1033;52.560;13.374;2023-04-05T07:26:28;101824.91;;;4.61;59.18
67015;BME280;1033;52.560;13.374;2023-04-05T07:29:01;101825.63;;;4.82;59.06
67015;BME280;1033;52.560;13.374;2023-04-05T07:31:30;101830.97;;;4.82;59.67
67015;BME280;1033;52.560;13.374;2023-04-05T07:34:01;101831.97;;;4.81;59.56
67015;BME280;1033;52.560;13.374;2023-04-05T07:36:30;101832.81;;;4.72;59.90
67015;BME280;1033;52.560;13.374;2023-04-05T07:39:02;101836.19;;;4.55;60.68
67015;BME280;1033;52.560;13.374;2023-04-05T07:41:31;101845.66;;;4.40;61.59
67015;BME280;1033;52.560;13.374;2023-04-05T07:44:02;101837.16;;;4.25;62.21
67015;BME280;1033;52.560;13.374;2023-04-05T07:46:31;101832.44;;;3.99;63.65
67015;BME280;1033;52.560;13.374;2023-04-05T07:49:01;101827.50;;;4.04;64.29
67015;BME280;1033;52.560;13.374;2023-04-05T07:51:30;101826.84;;;4.21;63.29
67015;BME280;1033;52.560;13.374;2023-04-05T07:54:02;101823.78;;;4.35;63.05
67015;BME280;1033;52.560;13.374;2023-04-05T07:56:32;101822.09;;;4.44;62.60
67015;BME280;1033;52.560;13.374;2023-04-05T07:59:01;101820.38;;;4.71;62.27
67015;BME280;1033;52.560;13.374;2023-04-05T08:01:30;101821.22;;;4.81;61.49
67015;BME280;1033;52.560;13.374;2023-04-05T08:04:01;101832.25;;;4.88;61.04
67015;BME280;1033;52.560;13.374;2023-04-05T08:06:32;101829.84;;;4.85;60.90
67015;BME280;1033;52.560;13.374;2023-04-05T08:09:01;101832.94;;;5.00;60.60
67015;BME280;1033;52.560;13.374;2023-04-05T08:11:32;101833.00;;;5.37;59.80
67015;BME280;1033;52.560;13.374;2023-04-05T08:14:01;101831.16;;;5.74;59.07
67015;BME280;1033;52.560;13.374;2023-04-05T08:16:31;101826.09;;;5.71;58.66
67015;BME280;1033;52.560;13.374;2023-04-05T08:19:02;101825.41;;;5.69;58.08
67015;BME280;1033;52.560;13.374;2023-04-05T08:21:31;101829.88;;;5.78;57.21
67015;BME280;1033;52.560;13.374;2023-04-05T08:24:00;101813.41;;;5.63;58.22
67015;BME280;1033;52.560;13.374;2023-04-05T08:26:29;101821.75;;;5.97;57.27
67015;BME280;1033;52.560;13.374;2023-04-05T08:28:58;101819.66;;;6.19;53.30
67015;BME280;1033;52.560;13.374;2023-04-05T08:31:27;101820.59;;;6.45;52.91
67015;BME280;1033;52.560;13.374;2023-04-05T08:33:56;101814.44;;;6.70;53.75
67015;BME280;1033;52.560;13.374;2023-04-05T08:36:27;101823.72;;;6.40;53.80
67015;BME280;1033;52.560;13.374;2023-04-05T08:38:56;101824.84;;;6.47;53.55
67015;BME280;1033;52.560;13.374;2023-04-05T08:41:29;101825.44;;;6.59;53.71
67015;BME280;1033;52.560;13.374;2023-04-05T08:44:03;101816.34;;;6.78;53.92
67015;BME280;1033;52.560;13.374;2023-04-05T08:46:34;101817.34;;;6.59;53.73
67015;BME280;1033;52.560;13.374;2023-04-05T08:49:04;101814.13;;;6.55;53.70
67015;BME280;1033;52.560;13.374;2023-04-05T08:51:37;101811.72;;;6.88;53.17
67015;BME280;1033;52.560;13.374;2023-04-05T08:54:11;101809.97;;;7.22;52.68
67015;BME280;1033;52.560;13.374;2023-04-05T08:56:42;101821.03;;;7.71;51.44
67015;BME280;1033;52.560;13.374;2023-04-05T08:59:16;101815.78;;;7.10;51.46
67015;BME280;1033;52.560;13.374;2023-04-05T09:01:47;101819.81;;;6.88;52.37
67015;BME280;1033;52.560;13.374;2023-04-05T09:04:21;101812.44;;;6.90;52.98
67015;BME280;1033;52.560;13.374;2023-04-05T09:06:53;101812.06;;;7.36;51.91
67015;BME280;1033;52.560;13.374;2023-04-05T09:09:25;101812.88;;;7.55;50.72
67015;BME280;1033;52.560;13.374;2023-04-05T09:11:59;101809.94;;;7.74;50.54
67015;BME280;1033;52.560;13.374;2023-04-05T09:14:29;101806.75;;;7.78;50.95
67015;BME280;1033;52.560;13.374;2023-04-05T09:17:01;101807.84;;;8.02;49.72
67015;BME280;1033;52.560;13.374;2023-04-05T09:19:31;101806.09;;;7.84;49.78
67015;BME280;1033;52.560;13.374;2023-04-05T09:22:05;101813.75;;;7.63;49.84
67015;BME280;1033;52.560;13.374;2023-04-05T09:24:40;101808.13;;;7.82;50.23
67015;BME280;1033;52.560;13.374;2023-04-05T09:27:11;101806.13;;;8.43;49.07
67015;BME280;1033;52.560;13.374;2023-04-05T09:29:42;101811.22;;;8.04;49.10
67015;BME280;1033;52.560;13.374;2023-04-05T09:32:12;101803.59;;;7.91;49.95
67015;BME280;1033;52.560;13.374;2023-04-05T09:34:43;101798.75;;;7.61;50.68
67015;BME280;1033;52.560;13.374;2023-04-05T09:37:21;101800.13;;;7.65;50.41
67015;BME280;1033;52.560;13.374;2023-04-05T09:40:01;101807.53;;;7.63;50.96
67015;BME280;1033;52.560;13.374;2023-04-05T09:42:41;101799.63;;;7.35;51.65
67015;BME280;1033;52.560;13.374;2023-04-05T09:45:11;101806.59;;;7.20;52.09
67015;BME280;1033;52.560;13.374;2023-04-05T09:47:55;101800.34;;;6.94;52.69
67015;BME280;1033;52.560;13.374;2023-04-05T09:50:25;101802.84;;;7.13;52.32
67015;BME280;1033;52.560;13.374;2023-04-05T09:53:08;101797.44;;;7.31;51.66
67015;BME280;1033;52.560;13.374;2023-04-05T09:55:37;101796.97;;;7.43;51.61
67015;BME280;1033;52.560;13.374;2023-04-05T09:58:11;101794.56;;;8.08;50.56
67015;BME280;1033;52.560;13.374;2023-04-05T10:00:49;101793.50;;;8.59;49.22
67015;BME280;1033;52.560;13.374;2023-04-05T10:03:45;101786.59;;;8.89;47.63
67015;BME280;1033;52.560;13.374;2023-04-05T10:06:16;101787.06;;;9.17;47.15
67015;BME280;1033;52.560;13.374;2023-04-05T10:08:47;101785.94;;;8.95;46.84
67015;BME280;1033;52.560;13.374;2023-04-05T10:11:17;101777.63;;;7.82;48.14
67015;BME280;1033;52.560;13.374;2023-04-05T10:13:48;101787.16;;;8.10;47.91
67015;BME280;1033;52.560;13.374;2023-04-05T10:16:20;101788.84;;;8.19;48.05
67015;BME280;1033;52.560;13.374;2023-04-05T10:18:52;101790.69;;;8.19;47.72
67015;BME280;1033;52.560;13.374;2023-04-05T10:21:23;101786.41;;;7.84;48.38
67015;BME280;1033;52.560;13.374;2023-04-05T10:24:12;101787.84;;;7.36;49.44
67015;BME280;1033;52.560;13.374;2023-04-05T10:26:51;101789.69;;;7.70;49.13
67015;BME280;1033;52.560;13.374;2023-04-05T10:29:28;101793.88;;;7.30;49.79
67015;BME280;1033;52.560;13.374;2023-04-05T10:32:03;101787.41;;;7.83;48.71
67015;BME280;1033;52.560;13.374;2023-04-05T10:34:44;101786.44;;;7.92;48.19
67015;BME280;1033;52.560;13.374;2023-04-05T10:37:24;101785.09;;;8.04;48.92
67015;BME280;1033;52.560;13.374;2023-04-05T10:40:01;101778.03;;;8.03;48.29
67015;BME280;1033;52.560;13.374;2023-04-05T10:42:39;101782.47;;;8.20;47.60
67015;BME280;1033;52.560;13.374;2023-04-05T10:45:12;101784.38;;;7.94;48.28
67015;BME280;1033;52.560;13.374;2023-04-05T10:47:49;101779.97;;;7.77;48.34
67015;BME280;1033;52.560;13.374;2023-04-05T10:50:23;101774.03;;;8.15;47.89
67015;BME280;1033;52.560;13.374;2023-04-05T10:52:53;101781.94;;;8.17;48.07
67015;BME280;1033;52.560;13.374;2023-04-05T10:55:25;101772.28;;;7.56;49.36
67015;BME280;1033;52.560;13.374;2023-04-05T10:57:56;101777.53;;;7.32;49.72
67015;BME280;1033;52.560;13.374;2023-04-05T11:00:26;101769.78;;;7.55;49.93
67015;BME280;1033;52.560;13.374;2023-04-05T11:02:55;101774.84;;;7.58;49.71
67015;BME280;1033;52.560;13.374;2023-04-05T11:05:32;101771.28;;;7.99;48.93
67015;BME280;1033;52.560;13.374;2023-04-05T11:08:05;101766.91;;;7.98;49.11
67015;BME280;1033;52.560;13.374;2023-04-05T11:10:38;101768.50;;;8.33;48.05
67015;BME280;1033;52.560;13.374;2023-04-05T11:13:08;101770.41;;;8.41;48.33
67015;BME280;1033;52.560;13.374;2023-04-05T11:15:38;101760.59;;;8.48;48.15
67015;BME280;1033;52.560;13.374;2023-04-05T11:18:09;101758.59;;;8.50;48.13
67015;BME280;1033;52.560;13.374;2023-04-05T11:20:43;101756.75;;;8.58;48.01
67015;BME280;1033;52.560;13.374;2023-04-05T11:23:14;101759.53;;;8.08;49.26
67015;BME280;1033;52.560;13.374;2023-04-05T11:25:50;101762.16;;;7.92;49.76
67015;BME280;1033;52.560;13.374;2023-04-05T11:28:24;101758.03;;;7.64;50.80
67015;BME280;1033;52.560;13.374;2023-04-05T11:30:54;101749.53;;;7.51;51.18
67015;BME280;1033;52.560;13.374;2023-04-05T11:33:53;101755.16;;;7.65;50.93
67015;BME280;1033;52.560;13.374;2023-04-05T11:36:32;101754.97;;;7.59;50.52
67015;BME280;1033;52.560;13.374;2023-04-05T11:39:25;101758.34;;;7.61;50.41
67015;BME280;1033;52.560;13.374;2023-04-05T11:42:03;101757.19;;;7.71;50.40
67015;BME280;1033;52.560;13.374;2023-04-05T11:44:43;101763.19;;;7.99;50.47
67015;BME280;1033;52.560;13.374;2023-04-05T11:47:15;101761.88;;;8.19;49.76
67015;BME280;1033;52.560;13.374;2023-04-05T11:49:49;101751.44;;;8.24;49.31
67015;BME280;1033;52.560;13.374;2023-04-05T11:52:20;101756.44;;;7.87;49.98
67015;BME280;1033;52.560;13.374;2023-04-05T11:54:51;101757.97;;;7.98;49.97
67015;BME280;1033;52.560;13.374;2023-04-05T11:57:22;101755.00;;;7.67;51.31
67015;BME280;1033;52.560;13.374;2023-04-05T11:59:52;101762.13;;;7.42;51.69
67015;BME280;1033;52.560;13.374;2023-04-05T12:02:22;101759.50;;;6.98;53.51
67015;BME280;1033;52.560;13.374;2023-04-05T12:04:53;101760.88;;;7.03;53.90
67015;BME280;1033;52.560;13.374;2023-04-05T12:07:26;101759.31;;;6.92;54.76
67015;BME280;1033;52.560;13.374;2023-04-05T12:12:39;101754.38;;;7.13;53.22
67015;BME280;1033;52.560;13.374;2023-04-05T12:15:10;101754.91;;;7.17;52.66
67015;BME280;1033;52.560;13.374;2023-04-05T12:17:43;101753.16;;;7.33;52.26
67015;BME280;1033;52.560;13.374;2023-04-05T12:20:14;101750.63;;;7.66;50.87
67015;BME280;1033;52.560;13.374;2023-04-05T12:22:44;101752.28;;;7.59;51.73
67015;BME280;1033;52.560;13.374;2023-04-05T12:25:15;101750.66;;;7.74;51.62
67015;BME280;1033;52.560;13.374;2023-04-05T12:27:46;101748.53;;;7.52;52.41
67015;BME280;1033;52.560;13.374;2023-04-05T12:30:17;101740.69;;;7.32;53.10
67015;BME280;1033;52.560;13.374;2023-04-05T12:32:50;101742.84;;;6.95;55.04
67015;BME280;1033;52.560;13.374;2023-04-05T12:35:21;101741.34;;;7.26;54.41
67015;BME280;1033;52.560;13.374;2023-04-05T12:37:51;101732.97;;;7.37;53.88
67015;BME280;1033;52.560;13.374;2023-04-05T12:40:21;101730.19;;;7.21;54.28
67015;BME280;1033;52.560;13.374;2023-04-05T12:42:52;101728.78;;;7.35;53.45
67015;BME280;1033;52.560;13.374;2023-04-05T12:45:29;101730.00;;;7.49;53.27
67015;BME280;1033;52.560;13.374;2023-04-05T12:48:08;101735.13;;;7.68;50.33
67015;BME280;1033;52.560;13.374;2023-04-05T12:50:42;101729.28;;;7.80;50.80
67015;BME280;1033;52.560;13.374;2023-04-05T12:53:16;101719.97;;;7.59;52.13
67015;BME280;1033;52.560;13.374;2023-04-05T12:55:49;101718.69;;;7.87;49.08
67015;BME280;1033;52.560;13.374;2023-04-05T12:58:21;101721.66;;;7.68;50.55
67015;BME280;1033;52.560;13.374;2023-04-05T13:00:51;101723.94;;;8.05;49.89
67015;BME280;1033;52.560;13.374;2023-04-05T13:03:21;101715.03;;;8.28;47.35
67015;BME280;1033;52.560;13.374;2023-04-05T13:05:50;101717.13;;;8.59;46.71
67015;BME280;1033;52.560;13.374;2023-04-05T13:08:20;101712.75;;;8.42;47.72
67015;BME280;1033;52.560;13.374;2023-04-05T13:10:49;101713.75;;;8.65;47.84
67015;BME280;1033;52.560;13.374;2023-04-05T13:13:20;101707.19;;;8.51;47.72
67015;BME280;1033;52.560;13.374;2023-04-05T13:15:49;101705.28;;;8.19;48.45
67015;BME280;1033;52.560;13.374;2023-04-05T13:18:19;101701.13;;;7.67;48.57
67015;BME280;1033;52.560;13.374;2023-04-05T13:20:48;101701.19;;;7.83;48.61
67015;BME280;1033;52.560;13.374;2023-04-05T13:23:17;101694.88;;;7.66;48.98
67015;BME280;1033;52.560;13.374;2023-04-05T13:25:46;101697.41;;;7.68;48.45
67015;BME280;1033;52.560;13.374;2023-04-05T13:28:15;101687.56;;;7.42;48.43
67015;BME280;1033;52.560;13.374;2023-04-05T13:30:46;101689.47;;;7.58;48.13
67015;BME280;1033;52.560;13.374;2023-04-05T13:33:17;101682.63;;;7.72;47.79
67015;BME280;1033;52.560;13.374;2023-04-05T13:35:47;101681.53;;;7.49;48.17